Espaces réglementés et Zones à statuts particuliers aero et les espaces réglementés qui sont les zones de l’annexe I et II de l’Arrêté du 11 avril 2012 relatives à l’espace aérien par les aéronefs qui circulent sans personne à bord. biton
Réserve naturelle bleue
Base ULM ULM
Héliport HELIPORT
Parapente PARAPENTE
piloteDRONE votre enplacement

 

METAR FMEE
Available data for FMEE from the past 2 hours
ST. DENIS/GILLOT
Metar
FMEE 221630Z AUTO VRB02KT CAVOK 21/16 Q1021 NOSIG

16:30 UTC

Wind: ° 2kt

Visibility:

Sky:

Temp: 21 deg C / 69.8 deg F

Dewpoint: 16 deg C / 60.8 deg F

Pressure: 1021 hPa

TAF FMEE
Available data for FMEE from the past 2 hours
ST. DENIS/GILLOT
TAF
TAF FMEE 221100Z 2212/2318 08016KT 9999 FEW030 BECMG 2214/2216 16005KT BECMG 2304/2306 11015KT TEMPO 2306/2312 11015G25KT

 

METAR FMEP
Available data for FMEP from the past 2 hours
ST. PIERRE/FONDS
Metar
FMEP 221630Z AUTO VRB03KT 9999 FEW032 22/19 Q1020

16:30 UTC

Wind: ° 3kt

Visibility: 9999 m

Sky: FEW 3200 ft

Temp: 22 deg C / 71.6 deg F

Dewpoint: 19 deg C / 66.2 deg F

Pressure: 1020 hPa

TAF FMEP
Available data for FMEP from the past 2 hours
ST. PIERRE/FONDS
TAF
TAF FMEP 221100Z 2212/2221 14012KT 9999 FEW030 BECMG 2212/2214 05005KT

 

NOTAM